createdAt,value
2019-02-02T00:02:25.929Z,48.72
2019-02-02T00:04:52.144Z,48.97
2019-02-02T00:07:18.321Z,48.80
2019-02-02T00:09:44.481Z,49.69
2019-02-02T00:12:10.773Z,50.59
2019-02-02T00:14:36.929Z,49.55
2019-02-02T00:17:03.187Z,50.32
2019-02-02T00:19:29.482Z,50.23
2019-02-02T00:21:55.643Z,50.12
2019-02-02T00:24:21.914Z,50.23
2019-02-02T00:26:48.213Z,50.48
2019-02-02T00:29:14.376Z,51.57
2019-02-02T00:31:40.644Z,50.82
2019-02-02T00:34:06.836Z,51.08
2019-02-02T00:36:33.000Z,51.16
2019-02-02T00:38:59.163Z,51.87
2019-02-02T00:41:25.448Z,52.32
2019-02-02T00:43:51.601Z,52.41
2019-02-02T00:46:17.879Z,51.89
2019-02-02T00:48:44.082Z,53.29
2019-02-02T00:51:10.342Z,52.32
2019-02-02T00:53:36.526Z,52.49
2019-02-02T00:56:03.424Z,54.03
2019-02-02T00:58:29.678Z,55.11
2019-02-02T01:00:55.849Z,53.44
2019-02-02T01:03:22.058Z,54.19
2019-02-02T01:05:48.320Z,52.62
2019-02-02T01:08:14.690Z,52.28
2019-02-02T01:10:42.088Z,53.81
2019-02-02T01:13:08.251Z,52.72
2019-02-02T01:15:34.515Z,53.28
2019-02-02T01:18:00.845Z,52.86
2019-02-02T01:20:27.716Z,51.61
2019-02-02T01:22:53.876Z,51.27
2019-02-02T01:25:20.293Z,50.86
2019-02-02T01:27:46.560Z,51.12
2019-02-02T01:30:16.508Z,50.40
2019-02-02T01:32:42.853Z,49.64
2019-02-02T01:35:11.824Z,49.59
2019-02-02T01:37:38.176Z,49.83
2019-02-02T01:40:07.968Z,50.81
2019-02-02T01:42:34.241Z,51.71
2019-02-02T01:45:00.809Z,52.75
2019-02-02T01:47:27.108Z,54.18
2019-02-02T01:49:53.387Z,51.87
2019-02-02T01:52:19.541Z,52.52
2019-02-02T01:54:45.728Z,52.35
2019-02-02T01:57:12.001Z,53.05
2019-02-02T01:59:38.160Z,56.54
2019-02-02T02:02:04.361Z,54.64
2019-02-02T02:04:30.627Z,53.10
2019-02-02T02:06:56.799Z,52.11
2019-02-02T02:09:23.055Z,51.88
2019-02-02T02:11:49.317Z,51.80
2019-02-02T02:14:15.574Z,51.82
2019-02-02T02:16:41.811Z,52.73
2019-02-02T02:19:07.970Z,53.23
2019-02-02T02:21:34.165Z,53.17
2019-02-02T02:24:00.379Z,54.24
2019-02-02T02:26:26.644Z,55.53
2019-02-02T02:28:52.815Z,55.61
2019-02-02T02:31:19.017Z,55.82
2019-02-02T02:33:45.293Z,55.93
2019-02-02T02:36:11.528Z,55.41
2019-02-02T02:38:37.892Z,55.35
2019-02-02T02:41:04.019Z,56.26
2019-02-02T02:43:30.186Z,57.08
2019-02-02T02:45:56.382Z,58.09
2019-02-02T02:48:22.642Z,56.42
2019-02-02T02:50:48.917Z,57.69
2019-02-02T02:53:15.133Z,56.13
2019-02-02T02:55:41.297Z,57.19
2019-02-02T02:58:07.470Z,56.29
2019-02-02T03:00:33.770Z,58.05
2019-02-02T03:02:59.923Z,56.99
2019-02-02T03:05:26.089Z,57.24
2019-02-02T03:07:53.697Z,55.83
2019-02-02T03:10:25.133Z,55.67
2019-02-02T03:12:51.983Z,56.86
2019-02-02T03:15:18.762Z,56.24
2019-02-02T03:17:45.375Z,57.27
2019-02-02T03:20:13.641Z,55.74
2019-02-02T03:22:39.847Z,54.63
2019-02-02T03:25:12.193Z,54.80
2019-02-02T03:27:38.457Z,55.36
2019-02-02T03:30:08.380Z,56.09
2019-02-02T03:32:34.557Z,57.41
2019-02-02T03:35:00.809Z,57.04
2019-02-02T03:37:27.019Z,56.80
2019-02-02T03:39:53.301Z,56.74
2019-02-02T03:42:19.565Z,56.20
2019-02-02T03:44:45.761Z,56.28
2019-02-02T03:47:11.948Z,56.30
2019-02-02T03:49:38.215Z,55.78
2019-02-02T03:52:04.511Z,54.61
2019-02-02T03:54:30.675Z,55.83
2019-02-02T03:56:56.940Z,54.89
2019-02-02T03:59:23.149Z,54.42
2019-02-02T04:01:49.415Z,55.04
2019-02-02T04:04:15.576Z,53.72
2019-02-02T04:06:41.769Z,53.21
2019-02-02T04:09:07.941Z,53.36
2019-02-02T04:11:36.089Z,54.26
2019-02-02T04:14:02.397Z,53.40
2019-02-02T04:16:28.553Z,53.53
2019-02-02T04:18:54.723Z,53.39
2019-02-02T04:21:21.030Z,53.68
2019-02-02T04:23:47.294Z,53.93
2019-02-02T04:26:13.552Z,53.23
2019-02-02T04:28:39.841Z,52.85
2019-02-02T04:31:06.105Z,53.81
2019-02-02T04:33:32.373Z,53.19
2019-02-02T04:35:58.566Z,52.99
2019-02-02T04:38:24.727Z,53.07
2019-02-02T04:40:50.889Z,52.54
2019-02-02T04:43:17.190Z,53.50
2019-02-02T04:45:43.597Z,52.97
2019-02-02T04:48:09.848Z,52.80
2019-02-02T04:50:36.050Z,53.01
2019-02-02T04:53:02.209Z,54.80
2019-02-02T04:55:28.471Z,54.53
2019-02-02T04:57:54.665Z,53.96
2019-02-02T05:00:25.372Z,52.48
2019-02-02T05:02:51.643Z,53.29
2019-02-02T05:05:17.844Z,54.49
2019-02-02T05:07:44.133Z,54.32
2019-02-02T05:10:23.546Z,54.50
2019-02-02T05:12:50.514Z,54.59
2019-02-02T05:15:16.779Z,55.47
2019-02-02T05:17:43.095Z,54.35
2019-02-02T05:20:14.513Z,53.67
2019-02-02T05:22:40.684Z,52.91
2019-02-02T05:25:07.990Z,55.02
2019-02-02T05:27:34.254Z,54.56
2019-02-02T05:30:00.560Z,54.22
2019-02-02T05:32:26.914Z,53.79
2019-02-02T05:34:53.079Z,53.48
2019-02-02T05:37:19.249Z,53.33
2019-02-02T05:39:45.564Z,52.71
2019-02-02T05:42:11.722Z,52.22
2019-02-02T05:44:37.900Z,52.39
2019-02-02T05:47:04.107Z,53.06
2019-02-02T05:49:30.366Z,53.54
2019-02-02T05:51:56.640Z,53.88
2019-02-02T05:54:22.850Z,53.89
2019-02-02T05:56:49.017Z,53.58
2019-02-02T05:59:15.175Z,54.54
2019-02-02T06:01:41.466Z,53.92
2019-02-02T06:04:07.624Z,54.42
2019-02-02T06:06:33.835Z,53.44
2019-02-02T06:09:00.146Z,54.00
2019-02-02T06:11:26.429Z,52.82
2019-02-02T06:13:52.752Z,51.89
2019-02-02T06:16:18.940Z,51.98
2019-02-02T06:18:45.203Z,50.66
2019-02-02T06:21:11.371Z,50.42
2019-02-02T06:23:37.556Z,50.31
2019-02-02T06:26:03.822Z,48.80
2019-02-02T06:28:29.994Z,46.67
2019-02-02T06:30:56.208Z,44.46
2019-02-02T06:33:22.365Z,46.64
2019-02-02T06:35:48.523Z,45.93
2019-02-02T06:38:14.721Z,45.63
2019-02-02T06:40:40.895Z,46.84
2019-02-02T06:43:07.084Z,46.27
2019-02-02T06:45:35.181Z,45.78
2019-02-02T06:48:01.456Z,45.67
2019-02-02T06:50:27.735Z,45.69
2019-02-02T06:52:54.050Z,45.77
2019-02-02T06:55:20.331Z,45.82
2019-02-02T06:57:46.613Z,46.59
2019-02-02T07:00:16.501Z,45.81
2019-02-02T07:02:42.710Z,44.88
2019-02-02T07:05:09.004Z,43.78
2019-02-02T07:07:35.321Z,42.13
2019-02-02T07:10:02.190Z,39.79
2019-02-02T07:12:28.358Z,38.32
2019-02-02T07:14:54.763Z,37.69
2019-02-02T07:17:21.044Z,36.74
2019-02-02T07:19:47.332Z,37.36
2019-02-02T07:22:13.523Z,38.82
2019-02-02T07:24:39.689Z,37.95
2019-02-02T07:27:05.858Z,36.78
2019-02-02T07:29:32.047Z,35.38
2019-02-02T07:31:58.205Z,35.58
2019-02-02T07:34:24.386Z,34.55
2019-02-02T07:36:50.688Z,34.16
2019-02-02T07:39:16.952Z,34.37
2019-02-02T07:41:43.113Z,34.68
2019-02-02T07:44:09.311Z,34.47
2019-02-02T07:46:35.874Z,33.96
2019-02-02T07:49:02.133Z,34.55
2019-02-02T07:51:28.333Z,34.12
2019-02-02T07:53:54.587Z,33.38
2019-02-02T07:56:20.739Z,33.26
2019-02-02T07:58:47.042Z,34.41
2019-02-02T08:01:13.194Z,34.58
2019-02-02T08:03:39.360Z,35.95
2019-02-02T08:06:05.571Z,35.90
2019-02-02T08:08:31.838Z,35.17
2019-02-02T08:10:58.023Z,33.86
2019-02-02T08:13:24.204Z,34.39
2019-02-02T08:15:50.412Z,34.01
2019-02-02T08:18:16.563Z,34.61
2019-02-02T08:20:42.790Z,32.92
2019-02-02T08:23:08.955Z,32.01
2019-02-02T08:25:35.113Z,31.20
2019-02-02T08:28:01.298Z,31.51
2019-02-02T08:30:29.658Z,30.57
2019-02-02T08:32:55.930Z,31.02
2019-02-02T08:35:22.132Z,31.69
2019-02-02T08:37:48.300Z,32.23
2019-02-02T08:40:16.668Z,31.92
2019-02-02T08:42:42.865Z,32.56
2019-02-02T08:45:10.519Z,32.84
2019-02-02T08:47:36.684Z,32.50
2019-02-02T08:50:06.581Z,33.06
2019-02-02T08:52:32.748Z,33.87
2019-02-02T08:54:58.925Z,34.01
2019-02-02T08:57:25.209Z,33.43
2019-02-02T08:59:51.625Z,34.21
2019-02-02T09:02:17.786Z,34.07
2019-02-02T09:04:44.115Z,33.95
2019-02-02T09:07:10.343Z,34.58
2019-02-02T09:09:36.601Z,33.50
2019-02-02T09:12:03.305Z,32.62
2019-02-02T09:14:29.485Z,33.37
2019-02-02T09:16:55.677Z,32.65
2019-02-02T09:19:21.879Z,32.49
2019-02-02T09:21:48.036Z,30.84
2019-02-02T09:24:14.189Z,30.08
2019-02-02T09:26:40.489Z,29.69
2019-02-02T09:29:06.646Z,28.08
2019-02-02T09:31:32.802Z,27.76
2019-02-02T09:33:58.988Z,29.80
2019-02-02T09:36:25.144Z,32.21
2019-02-02T09:38:51.303Z,32.51
2019-02-02T09:41:17.508Z,32.80
2019-02-02T09:43:43.779Z,32.87
2019-02-02T09:46:09.940Z,32.50
2019-02-02T09:48:36.129Z,30.49
2019-02-02T09:51:02.407Z,29.48
2019-02-02T09:53:28.567Z,32.82
2019-02-02T09:55:54.748Z,33.43
2019-02-02T09:58:21.244Z,30.72
2019-02-02T10:00:47.511Z,31.43
2019-02-02T10:03:13.805Z,29.65
2019-02-02T10:05:40.084Z,28.84
2019-02-02T10:08:06.236Z,28.23
2019-02-02T10:10:33.645Z,27.15
2019-02-02T10:12:59.794Z,27.79
2019-02-02T10:15:25.947Z,26.98
2019-02-02T10:17:53.177Z,27.67
2019-02-02T10:20:43.672Z,26.52
2019-02-02T10:23:09.881Z,24.87
2019-02-02T10:25:36.042Z,28.18
2019-02-02T10:28:02.612Z,32.15
2019-02-02T10:30:34.615Z,33.41
2019-02-02T10:33:00.876Z,32.43
2019-02-02T10:35:27.248Z,32.57
2019-02-02T10:37:53.744Z,31.19
2019-02-02T10:40:19.898Z,29.05
2019-02-02T10:42:46.057Z,28.52
2019-02-02T10:45:14.161Z,27.29
2019-02-02T10:47:42.869Z,28.75
2019-02-02T10:50:14.427Z,30.86
2019-02-02T10:52:40.618Z,31.53
2019-02-02T10:55:09.683Z,27.37
2019-02-02T10:57:35.833Z,25.64
2019-02-02T11:00:04.247Z,24.76
2019-02-02T11:02:30.408Z,24.13
2019-02-02T11:04:56.729Z,23.58
2019-02-02T11:07:23.249Z,22.81
2019-02-02T11:09:49.381Z,22.80
2019-02-02T11:12:15.535Z,22.98
2019-02-02T11:14:41.845Z,23.12
2019-02-02T11:17:08.071Z,23.59
2019-02-02T11:19:34.379Z,22.95
2019-02-02T11:22:00.573Z,22.86
2019-02-02T11:24:26.989Z,22.89
2019-02-02T11:26:53.435Z,22.79
2019-02-02T11:29:19.809Z,22.59
2019-02-02T11:31:45.988Z,22.52
2019-02-02T11:34:12.265Z,22.98
2019-02-02T11:36:38.562Z,23.94
2019-02-02T11:39:05.424Z,23.55
2019-02-02T11:41:31.587Z,24.05
2019-02-02T11:43:57.790Z,24.24
2019-02-02T11:46:23.945Z,23.53
2019-02-02T11:48:50.100Z,22.40
2019-02-02T11:51:16.397Z,21.26
2019-02-02T11:53:42.655Z,20.89
2019-02-02T11:56:08.922Z,19.92
2019-02-02T11:58:35.113Z,19.74
2019-02-02T12:01:01.373Z,19.25
2019-02-02T12:03:27.692Z,20.09
2019-02-02T12:05:53.889Z,19.89
2019-02-02T12:08:20.100Z,21.41
2019-02-02T12:10:46.299Z,21.99
2019-02-02T12:13:12.496Z,22.95
2019-02-02T12:15:38.754Z,24.26
2019-02-02T12:18:04.925Z,24.86
2019-02-02T12:20:33.120Z,24.74
2019-02-02T12:22:59.222Z,25.88
2019-02-02T12:25:25.375Z,25.84
2019-02-02T12:27:51.588Z,26.06
2019-02-02T12:30:20.347Z,25.32
2019-02-02T12:32:46.496Z,25.30
2019-02-02T12:35:21.069Z,24.64
2019-02-02T12:37:47.230Z,24.15
2019-02-02T12:40:15.984Z,24.25
2019-02-02T12:42:42.177Z,24.25
2019-02-02T12:45:11.650Z,25.14
2019-02-02T12:47:37.810Z,25.64
2019-02-02T12:50:07.500Z,25.67
2019-02-02T12:52:33.663Z,25.26
2019-02-02T12:54:59.818Z,25.56
2019-02-02T12:57:26.157Z,25.61
2019-02-02T12:59:52.322Z,25.82
2019-02-02T13:02:18.478Z,26.03
2019-02-02T13:04:44.664Z,26.37
2019-02-02T13:07:10.831Z,26.26
2019-02-02T13:09:36.980Z,26.62
2019-02-02T13:12:03.276Z,27.35
2019-02-02T13:14:29.539Z,27.68
2019-02-02T13:16:55.687Z,26.65
2019-02-02T13:19:21.988Z,26.73
2019-02-02T13:21:48.164Z,26.78
2019-02-02T13:24:14.325Z,27.87
2019-02-02T13:26:40.509Z,28.63
2019-02-02T13:29:06.766Z,28.95
2019-02-02T13:31:32.937Z,28.52
2019-02-02T13:33:59.126Z,29.26
2019-02-02T13:36:25.296Z,29.52
2019-02-02T13:38:51.452Z,29.47
2019-02-02T13:41:17.645Z,29.54
2019-02-02T13:43:43.806Z,30.71
2019-02-02T13:46:09.967Z,30.25
2019-02-02T13:48:36.374Z,30.39
2019-02-02T13:51:05.840Z,30.65
2019-02-02T13:53:30.893Z,30.64
2019-02-02T13:55:57.097Z,31.71
2019-02-02T13:58:23.247Z,32.21
2019-02-02T14:00:49.408Z,31.64
2019-02-02T14:03:15.613Z,32.05
2019-02-02T14:05:41.767Z,32.98
2019-02-02T14:08:07.932Z,33.51
2019-02-02T14:10:34.231Z,33.29
2019-02-02T14:13:00.484Z,34.55
2019-02-02T14:15:26.747Z,34.53
2019-02-02T14:17:53.064Z,33.83
2019-02-02T14:20:19.317Z,33.59
2019-02-02T14:22:45.630Z,34.24
2019-02-02T14:25:13.733Z,34.09
2019-02-02T14:27:39.894Z,34.11
2019-02-02T14:30:09.747Z,35.02
2019-02-02T14:32:35.941Z,35.00
2019-02-02T14:35:02.997Z,34.44
2019-02-02T14:37:29.155Z,35.19
2019-02-02T14:39:55.354Z,36.21
2019-02-02T14:42:26.288Z,35.88
2019-02-02T14:44:52.442Z,35.78
2019-02-02T14:47:20.685Z,36.63
2019-02-02T14:49:46.848Z,36.98
2019-02-02T14:52:13.025Z,36.14
2019-02-02T14:54:39.237Z,36.99
2019-02-02T14:57:05.409Z,37.00
2019-02-02T14:59:31.582Z,36.70
2019-02-02T15:01:57.769Z,36.92
2019-02-02T15:04:23.928Z,37.72
2019-02-02T15:06:53.251Z,38.08
2019-02-02T15:09:19.435Z,38.35
2019-02-02T15:11:45.590Z,39.29
2019-02-02T15:14:11.744Z,39.14
2019-02-02T15:16:37.936Z,38.36
2019-02-02T15:19:04.189Z,39.48
2019-02-02T15:21:33.410Z,39.25
2019-02-02T15:23:59.664Z,39.14
2019-02-02T15:26:25.824Z,39.90
2019-02-02T15:28:54.907Z,40.45
2019-02-02T15:31:21.111Z,39.49
2019-02-02T15:33:49.849Z,40.43
2019-02-02T15:36:16.187Z,39.80
2019-02-02T15:38:42.391Z,40.10
2019-02-02T15:41:08.667Z,40.73
2019-02-02T15:43:34.826Z,40.78
2019-02-02T15:46:01.142Z,40.67
2019-02-02T15:48:27.433Z,40.78
2019-02-02T15:50:53.591Z,41.59
2019-02-02T15:53:19.811Z,41.01
2019-02-02T15:55:45.965Z,41.20
2019-02-02T15:58:12.129Z,41.13
2019-02-02T16:00:38.326Z,41.34
2019-02-02T16:03:04.584Z,41.29
2019-02-02T16:05:31.646Z,41.67
2019-02-02T16:07:59.955Z,41.63
2019-02-02T16:10:28.210Z,41.33
2019-02-02T16:12:54.366Z,42.04
2019-02-02T16:15:20.581Z,41.58
2019-02-02T16:17:46.867Z,41.83
2019-02-02T16:20:25.413Z,42.07
2019-02-02T16:22:51.574Z,42.00
2019-02-02T16:25:17.824Z,42.34
2019-02-02T16:27:44.999Z,41.88
2019-02-02T16:30:14.560Z,42.24
2019-02-02T16:32:40.750Z,42.02
2019-02-02T16:35:09.485Z,42.31
2019-02-02T16:37:36.380Z,42.83
2019-02-02T16:40:06.492Z,42.40
2019-02-02T16:42:35.826Z,42.22
2019-02-02T16:45:00.999Z,42.43
2019-02-02T16:47:27.289Z,42.73
2019-02-02T16:49:53.836Z,42.27
2019-02-02T16:52:20.107Z,42.58
2019-02-02T16:54:46.371Z,42.89
2019-02-02T16:57:12.703Z,42.54
2019-02-02T16:59:38.871Z,42.48
2019-02-02T17:02:05.048Z,42.31
2019-02-02T17:04:31.267Z,42.26
2019-02-02T17:06:57.424Z,42.09
2019-02-02T17:09:23.588Z,42.03
2019-02-02T17:11:49.873Z,41.45
2019-02-02T17:14:17.943Z,41.79
2019-02-02T17:16:44.196Z,41.68
2019-02-02T17:19:10.498Z,41.81
2019-02-02T17:21:36.644Z,41.62
2019-02-02T17:24:03.130Z,42.13
2019-02-02T17:26:29.480Z,41.95
2019-02-02T17:28:55.755Z,41.71
2019-02-02T17:31:21.915Z,41.60
2019-02-02T17:33:48.102Z,41.25
2019-02-02T17:36:14.400Z,41.08
2019-02-02T17:38:40.573Z,41.12
2019-02-02T17:41:06.873Z,41.78
2019-02-02T17:43:33.024Z,41.28
2019-02-02T17:45:59.191Z,41.71
2019-02-02T17:48:25.376Z,42.01
2019-02-02T17:50:51.655Z,42.06
2019-02-02T17:53:17.928Z,42.45
2019-02-02T17:55:44.150Z,41.75
2019-02-02T17:58:13.241Z,42.09
2019-02-02T18:00:41.892Z,42.39
2019-02-02T18:03:08.124Z,43.19
2019-02-02T18:05:34.389Z,43.04
2019-02-02T18:08:00.644Z,43.54
2019-02-02T18:10:26.840Z,42.86
2019-02-02T18:12:53.003Z,43.09
2019-02-02T18:15:19.173Z,42.69
2019-02-02T18:17:45.422Z,43.12
2019-02-02T18:20:14.090Z,42.56
2019-02-02T18:22:40.280Z,43.41
2019-02-02T18:25:11.778Z,43.19
2019-02-02T18:27:38.090Z,43.16
2019-02-02T18:30:13.830Z,43.30
2019-02-02T18:32:39.991Z,43.21
2019-02-02T18:35:08.961Z,42.90
2019-02-02T18:37:35.166Z,43.90
2019-02-02T18:40:01.323Z,43.56
2019-02-02T18:42:27.482Z,44.33
2019-02-02T18:44:53.768Z,44.23
2019-02-02T18:47:21.035Z,43.09
2019-02-02T18:49:47.191Z,43.90
2019-02-02T18:52:13.404Z,43.14
2019-02-02T18:54:39.563Z,42.67
2019-02-02T18:57:05.737Z,43.34
2019-02-02T18:59:31.941Z,43.76
2019-02-02T19:01:58.103Z,43.65
2019-02-02T19:04:24.667Z,43.69
2019-02-02T19:06:50.866Z,43.90
2019-02-02T19:09:17.130Z,44.01
2019-02-02T19:11:43.296Z,42.93
2019-02-02T19:14:09.593Z,43.88
2019-02-02T19:16:35.781Z,43.19
2019-02-02T19:19:02.042Z,43.86
2019-02-02T19:21:28.251Z,43.99
2019-02-02T19:23:54.514Z,43.48
2019-02-02T19:26:20.776Z,44.64
2019-02-02T19:28:47.207Z,43.38
2019-02-02T19:31:13.490Z,43.79
2019-02-02T19:33:39.779Z,43.24
2019-02-02T19:36:05.972Z,43.77
2019-02-02T19:38:32.137Z,43.43
2019-02-02T19:40:58.392Z,43.41
2019-02-02T19:43:24.578Z,43.26
2019-02-02T19:45:53.537Z,43.55
2019-02-02T19:48:18.802Z,44.02
2019-02-02T19:50:45.584Z,45.13
2019-02-02T19:53:11.933Z,44.58
2019-02-02T19:55:38.129Z,45.45
2019-02-02T19:58:04.430Z,45.63
2019-02-02T20:00:32.607Z,45.49
2019-02-02T20:02:59.257Z,45.69
2019-02-02T20:05:28.788Z,45.71
2019-02-02T20:07:53.708Z,45.83
2019-02-02T20:10:19.869Z,46.38
2019-02-02T20:12:46.308Z,46.53
2019-02-02T20:15:15.097Z,46.42
2019-02-02T20:17:41.341Z,46.79
2019-02-02T20:20:11.356Z,46.70
2019-02-02T20:22:37.524Z,47.24
2019-02-02T20:25:07.402Z,46.46
2019-02-02T20:27:33.607Z,46.33
2019-02-02T20:29:59.957Z,46.20
2019-02-02T20:32:26.221Z,46.48
2019-02-02T20:34:52.409Z,46.92
2019-02-02T20:37:18.567Z,47.26
2019-02-02T20:39:44.839Z,47.07
2019-02-02T20:42:11.044Z,47.02
2019-02-02T20:44:37.308Z,46.84
2019-02-02T20:47:11.512Z,46.88
2019-02-02T20:49:37.708Z,47.26
2019-02-02T20:54:54.830Z,46.75
2019-02-02T20:57:21.127Z,47.28
2019-02-02T21:03:25.417Z,46.83
2019-02-02T21:05:52.781Z,46.61
2019-02-02T21:08:19.080Z,46.13
2019-02-02T21:10:45.323Z,46.76
2019-02-02T21:13:12.018Z,47.03
2019-02-02T21:15:38.184Z,47.29
2019-02-02T21:18:04.523Z,47.53
2019-02-02T21:20:31.166Z,47.54
2019-02-02T21:22:57.430Z,47.14
2019-02-02T21:25:23.854Z,46.82
2019-02-02T21:31:36.592Z,46.37
2019-02-02T21:34:03.153Z,45.85
2019-02-02T21:36:29.551Z,46.18
2019-02-02T21:38:55.745Z,45.65
2019-02-02T21:41:22.017Z,45.66
2019-02-02T21:43:48.301Z,45.87
2019-02-02T21:46:14.512Z,45.82
2019-02-02T21:48:40.786Z,45.75
2019-02-02T21:51:06.960Z,45.41
2019-02-02T22:01:32.408Z,45.09
2019-02-02T22:03:58.577Z,45.54
2019-02-02T22:06:24.735Z,45.63
2019-02-02T22:08:50.929Z,45.85
2019-02-02T22:11:17.195Z,46.21
2019-02-02T22:13:43.468Z,46.14
2019-02-02T22:16:09.671Z,46.34
2019-02-02T22:18:36.148Z,46.21
2019-02-02T22:21:02.411Z,45.94
2019-02-02T22:23:28.718Z,45.76
2019-02-02T22:25:54.882Z,46.04
2019-02-02T22:28:21.044Z,45.91
2019-02-02T22:30:47.240Z,46.03
2019-02-02T22:33:13.426Z,46.00
2019-02-02T22:35:39.910Z,46.73
2019-02-02T22:38:06.115Z,46.31
2019-02-02T22:40:32.271Z,45.64
2019-02-02T22:42:58.467Z,45.85
2019-02-02T22:45:24.646Z,45.10
2019-02-02T22:47:51.098Z,45.09
2019-02-02T22:50:19.474Z,45.56
2019-02-02T22:52:46.180Z,45.22
2019-02-02T22:55:14.335Z,45.17
2019-02-02T22:57:40.614Z,46.29
2019-02-02T23:00:24.505Z,46.01
2019-02-02T23:02:52.069Z,46.03
2019-02-02T23:05:28.065Z,45.95
2019-02-02T23:07:57.855Z,47.33
2019-02-02T23:10:33.813Z,47.61
2019-02-02T23:13:24.919Z,47.32
2019-02-02T23:15:54.950Z,47.24
2019-02-02T23:18:21.208Z,47.99
2019-02-02T23:20:47.385Z,48.25
2019-02-02T23:23:13.594Z,48.36
2019-02-02T23:25:40.167Z,48.85
2019-02-02T23:28:06.327Z,49.60
2019-02-02T23:30:32.532Z,49.69
2019-02-02T23:32:58.804Z,49.32
2019-02-02T23:35:25.134Z,49.43
2019-02-02T23:37:51.339Z,49.07
2019-02-02T23:40:17.513Z,48.45
2019-02-02T23:42:44.280Z,48.52
2019-02-02T23:45:10.595Z,48.45
2019-02-02T23:47:36.968Z,48.61
2019-02-02T23:50:08.470Z,48.60
2019-02-02T23:52:34.670Z,48.29
2019-02-02T23:55:00.838Z,47.88
2019-02-02T23:57:27.003Z,48.09
2019-02-02T23:59:53.412Z,48.02
